createdAt,value
2018-03-03T00:02:19.044Z,-2.20
2018-03-03T00:04:46.541Z,-2.00
2018-03-03T00:07:14.024Z,-2.00
2018-03-03T00:09:42.304Z,-2.00
2018-03-03T00:12:09.925Z,-2.00
2018-03-03T00:14:37.400Z,-2.10
2018-03-03T00:17:05.216Z,-2.20
2018-03-03T00:19:32.700Z,-2.30
2018-03-03T00:22:00.187Z,-2.30
2018-03-03T00:24:27.989Z,-2.50
2018-03-03T00:26:56.259Z,-2.60
2018-03-03T00:29:24.511Z,-2.50
2018-03-03T00:31:52.399Z,-2.60
2018-03-03T00:34:20.662Z,-2.50
2018-03-03T00:36:48.180Z,-2.50
2018-03-03T00:39:16.062Z,-2.50
2018-03-03T00:41:43.560Z,-2.50
2018-03-03T00:44:11.829Z,-2.40
2018-03-03T00:46:39.804Z,-2.40
2018-03-03T00:49:08.080Z,-2.50
2018-03-03T00:51:35.631Z,-2.50
2018-03-03T00:54:03.444Z,-2.60
2018-03-03T00:56:31.007Z,-2.70
2018-03-03T00:58:58.487Z,-2.70
2018-03-03T01:01:26.014Z,-3.00
2018-03-03T01:03:53.565Z,-2.90
2018-03-03T01:06:21.086Z,-2.90
2018-03-03T01:08:49.006Z,-3.00
2018-03-03T01:11:16.488Z,-3.20
2018-03-03T01:13:43.975Z,-3.10
2018-03-03T01:16:12.550Z,-3.00
2018-03-03T01:18:40.054Z,-2.80
2018-03-03T01:21:07.531Z,-2.70
2018-03-03T01:23:35.451Z,-2.90
2018-03-03T01:26:02.958Z,-2.90
2018-03-03T01:28:31.322Z,-2.80
2018-03-03T01:30:59.107Z,-2.80
2018-03-03T01:33:26.595Z,-2.70
2018-03-03T01:35:54.084Z,-2.60
2018-03-03T01:38:21.871Z,-2.60
2018-03-03T01:40:49.368Z,-2.60
2018-03-03T01:43:16.954Z,-2.50
2018-03-03T01:45:45.567Z,-2.70
2018-03-03T01:48:13.084Z,-2.70
2018-03-03T01:50:41.346Z,-2.80
2018-03-03T01:53:09.322Z,-2.80
2018-03-03T01:55:37.567Z,-2.70
2018-03-03T01:58:05.056Z,-2.70
2018-03-03T02:00:32.820Z,-2.80
2018-03-03T02:03:01.075Z,-2.60
2018-03-03T02:05:28.555Z,-2.60
2018-03-03T02:07:57.174Z,-2.60
2018-03-03T02:10:24.695Z,-2.60
2018-03-03T02:12:53.498Z,-2.80
2018-03-03T02:15:22.067Z,-2.70
2018-03-03T02:17:50.315Z,-2.70
2018-03-03T02:20:17.799Z,-2.70
2018-03-03T02:22:46.481Z,-2.70
2018-03-03T02:25:14.735Z,-2.60
2018-03-03T02:27:42.230Z,-2.60
2018-03-03T02:30:10.769Z,-2.60
2018-03-03T02:32:38.308Z,-2.60
2018-03-03T02:35:05.822Z,-2.60
2018-03-03T02:37:33.691Z,-2.50
2018-03-03T02:40:01.936Z,-2.30
2018-03-03T02:42:29.424Z,-2.30
2018-03-03T02:44:58.005Z,-2.30
2018-03-03T02:47:26.274Z,-2.40
2018-03-03T02:49:53.745Z,-2.40
2018-03-03T02:52:22.003Z,-2.50
2018-03-03T02:54:50.330Z,-2.40
2018-03-03T02:57:17.813Z,-2.40
2018-03-03T02:59:45.708Z,-2.40
2018-03-03T03:02:13.948Z,-2.30
2018-03-03T03:04:41.429Z,-2.30
2018-03-03T03:07:09.307Z,-2.30
2018-03-03T03:09:37.596Z,-2.40
2018-03-03T03:12:05.872Z,-2.30
2018-03-03T03:14:34.139Z,-2.20
2018-03-03T03:17:02.387Z,-2.20
2018-03-03T03:19:29.893Z,-2.20
2018-03-03T03:21:57.428Z,-2.10
2018-03-03T03:24:25.712Z,-1.90
2018-03-03T03:26:54.087Z,-1.90
2018-03-03T03:29:21.596Z,-1.90
2018-03-03T03:31:49.080Z,-1.90
2018-03-03T03:34:16.574Z,-2.10
2018-03-03T03:36:44.436Z,-2.20
2018-03-03T03:39:12.245Z,-2.20
2018-03-03T03:41:39.772Z,-2.20
2018-03-03T03:44:07.616Z,-2.20
2018-03-03T03:46:35.900Z,-2.20
2018-03-03T03:49:04.160Z,-2.20
2018-03-03T03:51:32.757Z,-2.30
2018-03-03T03:54:00.998Z,-2.40
2018-03-03T03:56:28.492Z,-2.40
2018-03-03T03:58:56.760Z,-2.40
2018-03-03T04:01:25.046Z,-2.40
2018-03-03T04:03:52.551Z,-2.40
2018-03-03T04:06:20.568Z,-2.40
2018-03-03T04:08:48.876Z,-2.50
2018-03-03T04:11:16.379Z,-2.50
2018-03-03T04:13:44.467Z,-2.60
2018-03-03T04:16:13.219Z,-2.60
2018-03-03T04:18:40.715Z,-2.60
2018-03-03T04:21:09.365Z,-2.50
2018-03-03T04:23:36.854Z,-2.60
2018-03-03T04:26:05.279Z,-2.50
2018-03-03T04:28:33.092Z,-2.50
2018-03-03T04:31:01.374Z,-2.50
2018-03-03T04:33:29.613Z,-2.30
2018-03-03T04:35:57.403Z,-2.30
2018-03-03T04:38:24.876Z,-2.30
2018-03-03T04:40:53.147Z,-2.20
2018-03-03T04:43:21.715Z,-2.10
2018-03-03T04:45:50.031Z,-2.30
2018-03-03T04:48:18.236Z,-2.40
2018-03-03T04:50:46.043Z,-2.40
2018-03-03T04:53:14.302Z,-2.40
2018-03-03T04:55:41.781Z,-2.40
2018-03-03T04:58:10.970Z,-2.20
2018-03-03T05:00:40.696Z,-2.10
2018-03-03T05:16:50.208Z,-2.30
2018-03-03T05:19:23.316Z,-2.40
2018-03-03T05:21:57.610Z,-2.30
2018-03-03T05:38:00.249Z,-2.60
2018-03-03T05:54:10.192Z,-2.80
2018-03-03T05:56:54.341Z,-2.90
2018-03-03T05:59:27.496Z,-2.90
2018-03-03T06:01:55.848Z,-2.90
2018-03-03T06:21:49.847Z,-2.30
2018-03-03T06:24:17.330Z,-2.20
2018-03-03T06:26:44.832Z,-2.20
2018-03-03T06:29:13.415Z,-2.20
2018-03-03T06:31:41.688Z,-2.30
2018-03-03T06:34:09.171Z,-2.30
2018-03-03T06:36:37.711Z,-2.30
2018-03-03T06:39:05.230Z,-2.30
2018-03-03T06:41:32.732Z,-2.30
2018-03-03T06:44:00.655Z,-2.40
2018-03-03T06:46:28.163Z,-2.50
2018-03-03T06:48:55.655Z,-2.30
2018-03-03T06:51:23.494Z,-2.50
2018-03-03T06:53:51.067Z,-2.60
2018-03-03T06:56:18.487Z,-2.50
2018-03-03T06:58:46.319Z,-2.40
2018-03-03T07:01:13.811Z,-2.70
2018-03-03T07:03:41.299Z,-2.90
2018-03-03T07:06:09.916Z,-2.30
2018-03-03T07:08:37.389Z,-2.80
2018-03-03T07:11:04.940Z,-2.80
2018-03-03T07:13:32.927Z,-2.70
2018-03-03T07:16:00.502Z,-2.80
2018-03-03T07:18:27.942Z,-2.70
2018-03-03T07:20:56.734Z,-2.70
2018-03-03T07:23:24.232Z,-2.70
2018-03-03T07:25:51.765Z,-2.70
2018-03-03T07:28:19.707Z,-2.80
2018-03-03T07:30:47.162Z,-2.70
2018-03-03T07:33:14.637Z,-2.60
2018-03-03T07:35:42.141Z,-2.70
2018-03-03T07:38:09.620Z,-2.60
2018-03-03T07:40:37.107Z,-2.60
2018-03-03T07:43:04.741Z,-2.70
2018-03-03T07:45:32.266Z,-2.70
2018-03-03T07:48:00.540Z,-2.50
2018-03-03T07:50:29.237Z,-2.40
2018-03-03T07:52:56.755Z,-2.40
2018-03-03T07:55:24.278Z,-2.20
2018-03-03T07:57:52.195Z,-2.20
2018-03-03T08:00:20.456Z,-1.90
2018-03-03T08:02:47.935Z,-1.90
2018-03-03T08:05:16.286Z,-1.70
2018-03-03T08:07:44.560Z,-1.60
2018-03-03T08:10:12.261Z,-1.70
2018-03-03T08:12:39.771Z,-2.20
2018-03-03T08:15:07.774Z,-2.00
2018-03-03T08:17:36.094Z,-1.90
2018-03-03T08:20:03.871Z,-2.00
2018-03-03T08:22:31.343Z,-1.80
2018-03-03T08:24:58.876Z,-1.80
2018-03-03T08:27:26.371Z,-1.70
2018-03-03T08:29:53.971Z,-1.70
2018-03-03T08:32:22.525Z,-1.60
2018-03-03T08:34:50.310Z,-1.60
2018-03-03T08:37:18.561Z,-1.50
2018-03-03T08:39:46.083Z,-1.40
2018-03-03T08:42:14.041Z,-1.40
2018-03-03T08:44:54.810Z,-1.30
2018-03-03T08:47:27.537Z,-1.50
2018-03-03T08:49:55.048Z,-1.50
2018-03-03T08:52:22.527Z,-1.40
2018-03-03T08:54:50.061Z,-1.10
2018-03-03T08:57:17.602Z,-1.20
2018-03-03T08:59:45.097Z,-1.00
2018-03-03T09:02:12.704Z,-1.10
2018-03-03T09:04:40.200Z,-0.90
2018-03-03T09:07:07.700Z,-0.80
2018-03-03T09:09:36.304Z,-1.00
2018-03-03T09:12:03.799Z,-1.00
2018-03-03T09:14:31.316Z,-1.00
2018-03-03T09:16:59.899Z,-1.30
2018-03-03T09:19:28.152Z,-0.90
2018-03-03T09:21:55.669Z,-1.00
2018-03-03T09:24:23.172Z,-0.90
2018-03-03T09:26:50.692Z,-1.10
2018-03-03T09:29:18.192Z,-1.10
2018-03-03T09:31:45.676Z,-0.80
2018-03-03T09:34:13.927Z,-0.80
2018-03-03T09:36:41.412Z,-0.90
2018-03-03T09:39:09.207Z,-0.60
2018-03-03T09:41:36.682Z,-0.60
2018-03-03T09:44:04.323Z,-0.40
2018-03-03T09:46:32.157Z,-0.40
2018-03-03T09:48:59.670Z,-0.30
2018-03-03T09:51:27.165Z,-0.70
2018-03-03T09:53:55.431Z,-0.40
2018-03-03T09:56:23.732Z,-0.70
2018-03-03T09:58:51.261Z,-0.70
2018-03-03T10:01:18.710Z,-0.90
2018-03-03T10:03:46.190Z,-0.70
2018-03-03T10:06:13.688Z,-0.60
2018-03-03T10:08:41.204Z,-0.50
2018-03-03T10:11:08.705Z,-0.50
2018-03-03T10:13:36.255Z,-0.30
2018-03-03T10:16:03.761Z,-0.40
2018-03-03T10:18:31.282Z,-0.70
2018-03-03T10:20:58.764Z,-0.50
2018-03-03T10:23:26.268Z,-0.40
2018-03-03T10:25:53.755Z,0.00
2018-03-03T10:28:21.265Z,0.00
2018-03-03T10:30:49.776Z,0.20
2018-03-03T10:33:17.334Z,0.50
2018-03-03T10:35:44.837Z,0.30
2018-03-03T10:38:12.319Z,0.10
2018-03-03T10:40:39.815Z,0.30
2018-03-03T10:43:07.313Z,0.10
2018-03-03T10:45:35.926Z,-0.10
2018-03-03T10:48:04.222Z,-0.20
2018-03-03T10:50:31.780Z,-0.30
2018-03-03T10:52:59.572Z,0.10
2018-03-03T10:55:27.056Z,-0.20
2018-03-03T10:57:54.607Z,-0.20
2018-03-03T11:00:28.170Z,-0.10
2018-03-03T11:02:55.676Z,0.00
2018-03-03T11:05:23.159Z,0.10
2018-03-03T11:07:50.699Z,0.20
2018-03-03T11:10:18.977Z,0.10
2018-03-03T11:12:47.243Z,0.20
2018-03-03T11:15:14.735Z,0.10
2018-03-03T11:17:42.245Z,0.00
2018-03-03T11:20:09.793Z,-0.10
2018-03-03T11:22:37.341Z,-0.10
2018-03-03T11:25:04.825Z,0.10
2018-03-03T11:27:32.395Z,0.30
2018-03-03T11:29:59.897Z,0.20
2018-03-03T11:32:27.396Z,0.30
2018-03-03T11:34:54.892Z,0.60
2018-03-03T11:37:22.423Z,0.70
2018-03-03T11:39:49.906Z,0.80
2018-03-03T11:42:18.171Z,0.60
2018-03-03T11:44:46.439Z,0.40
2018-03-03T11:47:13.995Z,0.40
2018-03-03T11:49:41.479Z,0.40
2018-03-03T11:52:08.970Z,0.50
2018-03-03T11:54:36.607Z,0.80
2018-03-03T11:57:04.084Z,1.10
2018-03-03T11:59:31.654Z,1.00
2018-03-03T12:01:59.159Z,0.80
2018-03-03T12:04:27.473Z,1.00
2018-03-03T12:06:55.301Z,1.00
2018-03-03T12:09:23.536Z,1.30
2018-03-03T12:11:51.092Z,1.30
2018-03-03T12:14:18.726Z,1.50
2018-03-03T12:16:46.233Z,1.50
2018-03-03T12:19:13.752Z,1.60
2018-03-03T12:21:41.587Z,1.30
2018-03-03T12:24:09.163Z,1.10
2018-03-03T12:26:36.655Z,1.20
2018-03-03T12:29:04.611Z,1.10
2018-03-03T12:31:32.186Z,0.90
2018-03-03T12:33:59.700Z,0.90
2018-03-03T12:36:27.408Z,1.30
2018-03-03T12:38:54.936Z,1.40
2018-03-03T12:41:22.416Z,1.60
2018-03-03T12:43:50.248Z,1.80
2018-03-03T12:46:17.764Z,2.00
2018-03-03T12:48:45.294Z,1.80
2018-03-03T12:51:12.970Z,2.10
2018-03-03T12:53:40.583Z,1.90
2018-03-03T12:56:08.065Z,1.80
2018-03-03T12:58:35.640Z,1.90
2018-03-03T13:01:03.041Z,1.90
2018-03-03T13:03:31.279Z,2.10
2018-03-03T13:05:58.782Z,2.10
2018-03-03T13:08:27.081Z,1.80
2018-03-03T13:10:54.575Z,1.80
2018-03-03T13:13:22.084Z,1.70
2018-03-03T13:15:49.582Z,1.70
2018-03-03T13:18:17.069Z,1.70
2018-03-03T13:20:45.328Z,1.70
2018-03-03T13:23:13.619Z,2.10
2018-03-03T13:25:41.117Z,2.10
2018-03-03T13:28:08.616Z,2.50
2018-03-03T13:30:36.125Z,2.70
2018-03-03T13:33:03.610Z,2.30
2018-03-03T13:35:31.154Z,2.20
2018-03-03T13:37:58.638Z,2.20
2018-03-03T13:40:26.179Z,2.40
2018-03-03T13:42:53.704Z,2.20
2018-03-03T13:45:23.680Z,2.40
2018-03-03T13:47:51.311Z,2.30
2018-03-03T13:50:19.125Z,2.00
2018-03-03T13:52:46.603Z,2.00
2018-03-03T13:55:14.077Z,2.20
2018-03-03T13:57:41.664Z,2.30
2018-03-03T14:00:09.139Z,2.30
2018-03-03T14:02:36.628Z,2.20
2018-03-03T14:05:04.148Z,2.00
2018-03-03T14:07:32.520Z,2.20
2018-03-03T14:10:00.023Z,2.20
2018-03-03T14:12:27.896Z,2.30
2018-03-03T14:14:56.164Z,2.30
2018-03-03T14:17:24.449Z,2.10
2018-03-03T14:19:52.216Z,2.00
2018-03-03T14:22:19.718Z,2.20
2018-03-03T14:24:47.268Z,1.80
2018-03-03T14:27:14.789Z,2.00
2018-03-03T14:29:42.286Z,2.30
2018-03-03T14:32:09.805Z,2.10
2018-03-03T14:34:37.441Z,2.40
2018-03-03T14:37:04.922Z,1.90
2018-03-03T14:39:32.401Z,1.70
2018-03-03T14:41:59.975Z,2.00
2018-03-03T14:44:27.481Z,1.80
2018-03-03T14:46:55.193Z,1.80
2018-03-03T14:49:22.727Z,2.00
2018-03-03T14:51:50.260Z,1.70
2018-03-03T14:54:17.824Z,1.70
2018-03-03T14:56:46.091Z,1.60
2018-03-03T14:59:13.589Z,1.60
2018-03-03T15:01:41.062Z,1.80
2018-03-03T15:04:08.564Z,1.70
2018-03-03T15:06:36.064Z,1.70
2018-03-03T15:09:03.596Z,1.70
2018-03-03T15:11:31.397Z,1.70
2018-03-03T15:13:58.873Z,1.80
2018-03-03T15:16:26.361Z,1.80
2018-03-03T15:18:55.072Z,1.80
2018-03-03T15:21:22.572Z,1.80
2018-03-03T15:23:50.097Z,1.90
2018-03-03T15:26:18.134Z,2.00
2018-03-03T15:28:46.375Z,1.90
2018-03-03T15:31:17.527Z,1.90
2018-03-03T15:33:45.153Z,1.70
2018-03-03T15:36:13.179Z,1.70
2018-03-03T15:38:41.414Z,1.80
2018-03-03T15:41:09.165Z,1.80
2018-03-03T15:43:36.781Z,1.80
2018-03-03T15:46:05.109Z,1.70
2018-03-03T15:48:32.632Z,1.70
2018-03-03T15:51:00.131Z,1.70
2018-03-03T15:53:27.632Z,1.90
2018-03-03T15:55:55.157Z,1.90
2018-03-03T15:58:22.661Z,1.90
2018-03-03T16:00:50.940Z,2.10
2018-03-03T16:03:18.467Z,2.10
2018-03-03T16:05:46.735Z,2.00
2018-03-03T16:08:14.235Z,2.00
2018-03-03T16:10:41.768Z,1.80
2018-03-03T16:13:10.036Z,1.80
2018-03-03T16:15:38.335Z,1.70
2018-03-03T16:18:05.916Z,1.70
2018-03-03T16:20:33.403Z,1.70
2018-03-03T16:23:00.880Z,1.80
2018-03-03T16:25:28.657Z,1.80
2018-03-03T16:27:56.936Z,1.70
2018-03-03T16:30:24.439Z,1.70
2018-03-03T16:32:52.016Z,1.70
2018-03-03T16:35:20.287Z,1.70
2018-03-03T16:37:47.833Z,1.70
2018-03-03T16:40:15.611Z,1.60
2018-03-03T16:42:43.104Z,1.50
2018-03-03T16:45:10.624Z,1.40
2018-03-03T16:47:38.180Z,1.40
2018-03-03T16:50:05.670Z,1.30
2018-03-03T16:52:33.178Z,1.20
2018-03-03T16:55:01.064Z,1.20
2018-03-03T16:57:28.549Z,1.20
2018-03-03T16:59:56.032Z,1.20
2018-03-03T17:02:24.428Z,1.20
2018-03-03T17:04:51.954Z,1.20
2018-03-03T17:07:20.304Z,1.20
2018-03-03T17:09:47.797Z,1.20
2018-03-03T17:12:15.421Z,1.20
2018-03-03T17:14:42.984Z,1.20
2018-03-03T17:17:10.549Z,1.20
2018-03-03T17:19:38.028Z,1.20
2018-03-03T17:22:06.279Z,1.10
2018-03-03T17:24:34.086Z,1.10
2018-03-03T17:27:02.340Z,1.10
2018-03-03T17:29:29.849Z,1.10
2018-03-03T17:31:57.336Z,1.10
2018-03-03T17:34:24.847Z,0.90
2018-03-03T17:36:52.387Z,0.90
2018-03-03T17:39:20.906Z,0.80
2018-03-03T17:41:48.390Z,0.80
2018-03-03T17:44:15.891Z,0.70
2018-03-03T17:46:44.254Z,0.60
2018-03-03T17:49:12.575Z,0.60
2018-03-03T17:51:40.059Z,0.60
2018-03-03T17:54:07.564Z,0.50
2018-03-03T17:56:35.323Z,0.40
2018-03-03T17:59:03.733Z,0.40
2018-03-03T18:01:31.269Z,0.40
2018-03-03T18:03:58.751Z,0.40
2018-03-03T18:06:26.229Z,0.40
2018-03-03T18:08:53.739Z,0.40
2018-03-03T18:11:21.243Z,0.30
2018-03-03T18:13:52.063Z,0.20
2018-03-03T18:16:19.891Z,0.30
2018-03-03T18:18:48.197Z,0.30
2018-03-03T18:21:15.675Z,0.30
2018-03-03T18:23:43.512Z,0.10
2018-03-03T18:26:11.028Z,0.20
2018-03-03T18:28:38.512Z,0.00
2018-03-03T18:31:06.801Z,0.00
2018-03-03T18:33:34.295Z,-0.10
2018-03-03T18:36:01.853Z,-0.10
2018-03-03T18:38:29.666Z,0.00
2018-03-03T18:40:57.175Z,-0.10
2018-03-03T18:43:24.680Z,0.00
2018-03-03T18:45:52.969Z,0.00
2018-03-03T18:48:20.457Z,0.00
2018-03-03T18:50:48.820Z,-0.10
2018-03-03T18:53:16.704Z,-0.10
2018-03-03T18:55:44.181Z,-0.10
2018-03-03T18:58:11.842Z,-0.10
2018-03-03T19:00:39.650Z,-0.10
2018-03-03T19:03:07.128Z,-0.20
2018-03-03T19:05:34.623Z,-0.30
2018-03-03T19:08:02.411Z,-0.20
2018-03-03T19:10:30.684Z,-0.20
2018-03-03T19:12:59.004Z,-0.30
2018-03-03T19:15:26.516Z,-0.30
2018-03-03T19:17:54.039Z,-0.30
2018-03-03T19:20:21.690Z,-0.30
2018-03-03T19:22:49.197Z,-0.30
2018-03-03T19:25:17.444Z,-0.30
2018-03-03T19:27:44.984Z,-0.30
2018-03-03T19:30:12.492Z,-0.30
2018-03-03T19:32:40.745Z,-0.40
2018-03-03T19:35:08.471Z,-0.40
2018-03-03T19:37:36.397Z,-0.30
2018-03-03T19:40:04.645Z,-0.40
2018-03-03T19:42:32.143Z,-0.40
2018-03-03T19:45:00.429Z,-0.60
2018-03-03T19:47:28.666Z,-0.60
2018-03-03T19:49:56.220Z,-0.70
2018-03-03T19:52:24.797Z,-0.60
2018-03-03T19:54:52.703Z,-0.70
2018-03-03T19:57:20.242Z,-0.70
2018-03-03T19:59:47.736Z,-0.80
2018-03-03T20:02:15.255Z,-0.70
2018-03-03T20:04:42.766Z,-0.80
2018-03-03T20:07:11.048Z,-0.60
2018-03-03T20:09:38.529Z,-0.60
2018-03-03T20:12:06.039Z,-0.70
2018-03-03T20:14:33.554Z,-0.70
2018-03-03T20:17:01.051Z,-0.70
2018-03-03T20:19:28.537Z,-0.70
2018-03-03T20:21:56.342Z,-0.80
2018-03-03T20:24:23.844Z,-0.80
2018-03-03T20:26:51.319Z,-0.80
2018-03-03T20:29:18.875Z,-0.80
2018-03-03T20:31:46.412Z,-0.80
2018-03-03T20:34:13.889Z,-0.90
2018-03-03T20:36:41.393Z,-0.80
2018-03-03T20:39:08.880Z,-0.90
2018-03-03T20:41:36.437Z,-0.90
2018-03-03T20:44:03.993Z,-0.90
2018-03-03T20:46:32.277Z,-1.00
2018-03-03T20:48:59.784Z,-1.00
2018-03-03T20:51:27.329Z,-1.20
2018-03-03T20:53:54.820Z,-1.10
2018-03-03T20:56:23.189Z,-1.10
2018-03-03T20:58:50.710Z,-1.10
2018-03-03T21:01:18.224Z,-1.20
2018-03-03T21:03:46.469Z,-1.00
2018-03-03T21:06:13.980Z,-1.00
2018-03-03T21:08:41.465Z,-1.00
2018-03-03T21:24:32.046Z,-1.30
2018-03-03T21:26:59.533Z,-1.20
2018-03-03T21:29:27.091Z,-1.30
2018-03-03T21:31:54.781Z,-1.40
2018-03-03T21:34:23.024Z,-1.30
2018-03-03T21:36:50.513Z,-1.30
2018-03-03T21:39:18.274Z,-1.20
2018-03-03T21:41:46.528Z,-1.10
2018-03-03T21:44:14.040Z,-1.10
2018-03-03T21:46:41.536Z,-1.10
2018-03-03T21:49:09.039Z,-1.20
2018-03-03T21:51:36.541Z,-1.10
2018-03-03T21:54:04.071Z,-1.10
2018-03-03T21:56:31.564Z,-1.30
2018-03-03T21:58:59.074Z,-1.30
2018-03-03T22:01:26.579Z,-1.10
2018-03-03T22:03:54.089Z,-1.20
2018-03-03T22:06:21.641Z,-1.20
2018-03-03T22:08:49.495Z,-1.30
2018-03-03T22:11:17.769Z,-1.30
2018-03-03T22:13:45.250Z,-1.30
2018-03-03T22:16:13.140Z,-1.20
2018-03-03T22:18:40.894Z,-1.20
2018-03-03T22:21:08.384Z,-1.20
2018-03-03T22:23:35.915Z,-1.10
2018-03-03T22:26:03.400Z,-1.10
2018-03-03T22:28:30.891Z,-1.10
2018-03-03T22:30:59.220Z,-1.10
2018-03-03T22:33:26.720Z,-1.10
2018-03-03T22:35:54.192Z,-1.10
2018-03-03T22:38:22.155Z,-1.10
2018-03-03T22:40:50.392Z,-1.00
2018-03-03T22:43:17.917Z,-1.00
2018-03-03T22:45:45.479Z,-1.00
2018-03-03T22:48:13.093Z,-1.00
2018-03-03T22:50:40.622Z,-0.90
2018-03-03T22:53:08.189Z,-0.90
2018-03-03T22:55:35.757Z,-0.80
2018-03-03T22:58:04.000Z,-0.80
2018-03-03T23:00:31.868Z,-0.90
2018-03-03T23:02:59.351Z,-0.80
2018-03-03T23:05:26.875Z,-0.70
2018-03-03T23:07:54.359Z,-0.70
2018-03-03T23:10:21.839Z,-0.60
2018-03-03T23:12:49.340Z,-0.70
2018-03-03T23:15:17.208Z,-0.70
2018-03-03T23:17:44.785Z,-0.90
2018-03-03T23:20:12.742Z,-0.80
2018-03-03T23:22:40.718Z,-0.80
2018-03-03T23:25:08.723Z,-0.70
2018-03-03T23:27:36.207Z,-0.70
2018-03-03T23:30:03.702Z,-0.80
2018-03-03T23:32:31.206Z,-0.70
2018-03-03T23:34:58.723Z,-0.70
2018-03-03T23:37:26.239Z,-0.70
2018-03-03T23:39:53.739Z,-0.70
2018-03-03T23:42:21.226Z,-0.70
2018-03-03T23:44:48.718Z,-0.60
2018-03-03T23:47:16.224Z,-0.70
2018-03-03T23:49:43.691Z,-0.70
2018-03-03T23:52:11.603Z,-0.70
2018-03-03T23:54:39.085Z,-0.70
2018-03-03T23:57:06.563Z,-0.70
2018-03-03T23:59:34.460Z,-0.70
